Time;durP1;ratioP1;P1;durP2;ratioP2;P2;SDS_P1;SDS_P2;PMS_P1;PMS_P2;Temp;Humidity;BMP_temperature;BMP_pressure;BME280_temperature;BME280_humidity;BME280_pressure;Samples;Min_cycle;Max_cycle;Signal;HPM_P1;HPM_P2
2021/05/03 00:01:34;;;;;;;3.10;2.80;;;4.60;99.90;;;;;;5033695;28;20033;-77
2021/05/03 00:03:59;;;;;;;5.72;3.53;;;4.70;99.90;;;;;;5049937;28;20440;-78
2021/05/03 00:06:25;;;;;;;4.40;3.83;;;4.70;99.90;;;;;;5035126;28;20421;-78
2021/05/03 00:08:51;;;;;;;3.70;3.17;;;4.70;99.90;;;;;;5034364;28;20492;-78
2021/05/03 00:11:17;;;;;;;4.50;3.30;;;4.80;99.90;;;;;;5049893;28;20065;-78
2021/05/03 00:13:43;;;;;;;5.57;3.45;;;4.70;99.90;;;;;;5033855;28;20485;-78
2021/05/03 00:16:08;;;;;;;3.75;2.70;;;4.60;99.90;;;;;;5049408;28;20068;-78
2021/05/03 00:18:34;;;;;;;7.13;3.63;;;4.60;99.90;;;;;;5049510;28;20561;-78
2021/05/03 00:21:01;;;;;;;4.40;3.53;;;4.60;99.90;;;;;;5034405;28;20033;-79
2021/05/03 00:23:27;;;;;;;7.47;3.03;;;4.60;99.90;;;;;;5032803;28;20049;-79
2021/05/03 00:25:53;;;;;;;5.05;3.33;;;4.60;99.90;;;;;;5034068;28;20549;-78
2021/05/03 00:28:19;;;;;;;4.28;3.20;;;4.60;99.90;;;;;;5034031;28;20124;-78
2021/05/03 00:30:44;;;;;;;3.13;2.65;;;4.60;99.90;;;;;;5049009;28;20404;-78
2021/05/03 00:33:10;;;;;;;6.60;3.13;;;4.60;99.90;;;;;;5049353;28;20030;-78
2021/05/03 00:35:36;;;;;;;4.40;2.90;;;4.60;99.90;;;;;;5033785;28;20080;-78
2021/05/03 00:38:03;;;;;;;4.35;3.30;;;4.40;99.90;;;;;;5032962;28;20041;-79
2021/05/03 00:40:29;;;;;;;5.43;3.15;;;4.30;99.90;;;;;;5049120;28;20100;-78
2021/05/03 00:42:55;;;;;;;3.88;3.00;;;4.30;99.90;;;;;;5033945;28;20034;-78
2021/05/03 00:45:22;;;;;;;4.38;3.22;;;4.30;99.90;;;;;;5033805;28;20447;-78
2021/05/03 00:47:48;;;;;;;3.50;3.00;;;4.30;99.90;;;;;;5036688;28;20030;-79
2021/05/03 00:50:16;;;;;;;4.75;2.92;;;4.20;99.90;;;;;;5037598;28;20044;-78
2021/05/03 00:52:42;;;;;;;3.58;2.88;;;4.30;99.90;;;;;;5037769;28;20029;-78
2021/05/03 00:55:10;;;;;;;4.15;3.22;;;4.30;99.90;;;;;;5037978;28;20041;-79
2021/05/03 00:57:37;;;;;;;4.65;3.30;;;4.20;99.90;;;;;;5036919;28;20041;-79
2021/05/03 01:00:09;;;;;;;4.47;3.40;;;4.10;99.90;;;;;;5037272;28;20038;-80
2021/05/03 01:02:37;;;;;;;8.43;3.17;;;3.90;99.90;;;;;;5037180;28;20064;-80
2021/05/03 01:05:03;;;;;;;5.10;3.00;;;3.90;99.90;;;;;;5037491;28;20551;-79
2021/05/03 01:07:29;;;;;;;4.00;3.60;;;3.90;99.90;;;;;;5036892;28;20075;-79
2021/05/03 01:09:54;;;;;;;4.10;3.25;;;4.00;99.90;;;;;;5037813;28;20125;-79
2021/05/03 01:12:20;;;;;;;2.95;2.67;;;4.00;99.90;;;;;;5037059;28;20085;-79
2021/05/03 01:14:46;;;;;;;3.30;3.00;;;4.00;99.90;;;;;;5036944;28;20060;-79
2021/05/03 01:17:12;;;;;;;4.07;3.05;;;3.90;99.90;;;;;;5037265;28;20037;-80
2021/05/03 01:19:38;;;;;;;5.35;3.05;;;3.90;99.90;;;;;;5052368;28;20136;-80
2021/05/03 01:22:04;;;;;;;6.05;3.40;;;3.90;99.90;;;;;;5037210;28;20029;-80
2021/05/03 01:24:29;;;;;;;5.93;3.40;;;3.90;99.90;;;;;;5037184;28;20112;-80
2021/05/03 01:26:58;;;;;;;5.55;3.38;;;3.90;99.90;;;;;;5037130;28;20068;-79
2021/05/03 01:29:24;;;;;;;3.70;3.28;;;4.00;99.90;;;;;;5037343;28;20048;-79
2021/05/03 01:31:50;;;;;;;3.30;3.00;;;3.80;99.90;;;;;;5037535;28;20117;-79
2021/05/03 01:34:16;;;;;;;5.95;3.22;;;3.90;99.90;;;;;;5035751;28;20045;-79
2021/05/03 01:36:44;;;;;;;3.50;3.05;;;3.90;99.90;;;;;;5036612;28;20046;-79
2021/05/03 01:39:12;;;;;;;4.40;3.30;;;3.90;99.90;;;;;;5037259;28;20526;-79
2021/05/03 01:41:37;;;;;;;4.57;3.00;;;3.90;99.90;;;;;;5036923;28;20037;-79
2021/05/03 01:44:05;;;;;;;3.53;2.70;;;3.90;99.90;;;;;;5036644;28;20044;-78
2021/05/03 01:46:33;;;;;;;2.90;2.67;;;3.90;99.90;;;;;;5036791;28;20041;-79
2021/05/03 01:49:00;;;;;;;5.75;2.78;;;3.90;99.90;;;;;;5036500;28;20053;-78
2021/05/03 01:51:28;;;;;;;5.45;2.83;;;3.80;99.90;;;;;;5036407;28;20036;-78
2021/05/03 01:53:55;;;;;;;4.63;3.20;;;3.60;99.90;;;;;;5051972;28;20092;-78
2021/05/03 01:56:24;;;;;;;3.15;2.72;;;3.50;99.90;;;;;;5036527;28;20087;-78
2021/05/03 01:58:51;;;;;;;4.53;3.13;;;3.50;99.90;;;;;;5051154;28;20049;-78
2021/05/03 02:01:17;;;;;;;4.72;3.10;;;3.40;99.90;;;;;;5052022;28;20507;-77
2021/05/03 02:03:42;;;;;;;3.53;3.10;;;3.50;99.90;;;;;;5036478;28;20042;-78
2021/05/03 02:06:08;;;;;;;3.20;2.90;;;3.40;99.90;;;;;;5036191;28;20124;-78
2021/05/03 02:08:34;;;;;;;3.20;2.90;;;3.50;99.90;;;;;;5036112;28;20041;-78
2021/05/03 02:11:00;;;;;;;5.78;3.20;;;3.40;99.90;;;;;;5035607;28;20514;-79
2021/05/03 02:13:27;;;;;;;2.97;2.63;;;3.30;99.90;;;;;;5036257;28;20108;-78
2021/05/03 02:15:53;;;;;;;6.45;2.85;;;3.20;99.90;;;;;;5034051;28;20073;-79
2021/05/03 02:18:19;;;;;;;4.47;3.05;;;3.30;99.90;;;;;;5035590;28;20075;-79
2021/05/03 02:20:46;;;;;;;5.38;3.00;;;3.20;99.90;;;;;;5035623;28;20053;-79
2021/05/03 02:23:13;;;;;;;3.60;3.03;;;3.30;99.90;;;;;;5035896;28;20083;-79
2021/05/03 02:25:38;;;;;;;26.50;12.35;;;3.30;99.90;;;;;;5036033;28;20037;-78
2021/05/03 02:28:04;;;;;;;5.80;3.55;;;3.40;99.90;;;;;;5035438;28;20406;-78
2021/05/03 02:30:30;;;;;;;6.10;4.03;;;3.40;99.90;;;;;;5035694;28;20049;-77
2021/05/03 02:32:56;;;;;;;3.15;2.85;;;3.30;99.90;;;;;;5035593;28;20044;-78
2021/05/03 02:35:24;;;;;;;3.72;2.88;;;3.30;99.90;;;;;;5035600;28;20033;-78
2021/05/03 02:37:58;;;;;;;4.32;3.08;;;3.30;99.90;;;;;;5035102;28;20437;-78
2021/05/03 02:40:24;;;;;;;5.97;2.90;;;3.20;99.90;;;;;;5035258;28;20168;-78
2021/05/03 02:42:56;;;;;;;4.20;3.10;;;3.00;99.90;;;;;;5050704;28;20124;-78
2021/05/03 02:45:23;;;;;;;3.83;2.90;;;3.00;99.90;;;;;;5050504;28;20037;-78
2021/05/03 02:47:49;;;;;;;7.72;3.15;;;3.10;99.90;;;;;;5035158;28;20120;-78
2021/05/03 02:50:16;;;;;;;3.70;3.13;;;3.10;99.90;;;;;;5033506;28;20041;-78
2021/05/03 02:52:43;;;;;;;2.85;2.63;;;3.10;99.90;;;;;;5050519;28;20034;-78
2021/05/03 02:55:11;;;;;;;4.28;3.67;;;3.10;99.90;;;;;;5035178;28;20056;-79
2021/05/03 02:57:42;;;;;;;4.05;2.97;;;3.10;99.90;;;;;;5035045;28;20496;-78
2021/05/03 03:00:11;;;;;;;3.55;2.92;;;3.10;99.90;;;;;;5049989;28;20048;-79
2021/05/03 03:02:37;;;;;;;4.78;3.20;;;3.10;99.90;;;;;;5034778;28;20520;-78
2021/05/03 03:05:04;;;;;;;3.22;2.92;;;3.00;99.90;;;;;;5033705;28;20037;-78
2021/05/03 03:07:30;;;;;;;3.78;2.88;;;3.00;99.90;;;;;;5034987;28;20070;-78
2021/05/03 03:09:56;;;;;;;4.70;3.05;;;3.00;99.90;;;;;;5032552;28;20033;-78
2021/05/03 03:12:21;;;;;;;6.28;3.42;;;3.00;99.90;;;;;;5034877;28;20030;-78
2021/05/03 03:14:47;;;;;;;4.88;3.00;;;3.00;99.90;;;;;;5035116;28;20053;-78
2021/05/03 03:17:13;;;;;;;5.75;2.92;;;3.00;99.90;;;;;;5033762;28;20140;-78
2021/05/03 03:19:40;;;;;;;3.30;3.00;;;2.80;99.90;;;;;;5035150;28;20485;-78
2021/05/03 03:22:07;;;;;;;3.70;3.30;;;2.90;99.90;;;;;;5035013;28;20083;-77
2021/05/03 03:24:33;;;;;;;4.30;3.17;;;2.80;99.90;;;;;;5050361;28;20038;-78
2021/05/03 03:27:00;;;;;;;3.33;2.90;;;2.90;99.90;;;;;;5034682;28;20075;-78
2021/05/03 03:29:26;;;;;;;4.40;2.88;;;2.90;99.90;;;;;;5035046;28;20083;-78
2021/05/03 03:31:52;;;;;;;3.42;3.13;;;2.90;99.90;;;;;;5050194;28;20120;-78
2021/05/03 03:34:17;;;;;;;4.13;3.17;;;2.80;99.90;;;;;;5035179;28;20084;-77
2021/05/03 03:36:43;;;;;;;4.93;3.17;;;2.90;99.90;;;;;;5033436;28;20454;-78
2021/05/03 03:39:09;;;;;;;4.55;3.53;;;2.90;99.90;;;;;;5035178;28;20037;-77
2021/05/03 03:41:35;;;;;;;5.70;3.05;;;2.90;99.90;;;;;;5034525;28;20068;-78
2021/05/03 03:44:02;;;;;;;4.80;3.22;;;2.80;99.90;;;;;;5034587;28;20060;-77
2021/05/03 03:46:29;;;;;;;5.82;3.25;;;2.70;99.90;;;;;;5050056;28;20033;-78
2021/05/03 03:48:54;;;;;;;3.80;2.70;;;2.70;99.90;;;;;;5049833;28;20048;-78
2021/05/03 03:51:20;;;;;;;3.95;2.90;;;2.70;99.90;;;;;;5050153;28;20033;-78
2021/05/03 03:53:46;;;;;;;4.03;3.20;;;2.50;99.90;;;;;;5034729;28;20034;-78
2021/05/03 03:56:13;;;;;;;4.35;3.22;;;2.60;99.90;;;;;;5049990;28;20039;-78
2021/05/03 03:58:40;;;;;;;2.70;2.50;;;2.60;99.90;;;;;;5034494;28;20045;-78
2021/05/03 04:01:08;;;;;;;3.75;2.65;;;2.70;99.90;;;;;;5034388;28;20033;-78
2021/05/03 04:03:34;;;;;;;3.20;2.90;;;2.70;99.90;;;;;;5034427;28;20039;-78
2021/05/03 04:06:12;;;;;;;3.85;2.50;;;2.70;99.90;;;;;;5034315;28;20124;-78
2021/05/03 04:09:07;;;;;;;3.50;2.50;;;2.60;99.90;;;;;;5050014;28;20046;-78
2021/05/03 04:21:04;;;;;;;3.13;2.83;;;2.50;99.90;;;;;;5033866;28;20080;-78
2021/05/03 04:25:39;;;;;;;3.88;2.83;;;2.70;99.90;;;;;;5037542;28;20041;-78
2021/05/03 04:28:07;;;;;;;3.90;2.88;;;2.80;99.90;;;;;;5037957;28;20046;-77
2021/05/03 04:30:33;;;;;;;4.50;2.65;;;2.80;99.90;;;;;;5037534;28;20501;-77
2021/05/03 04:32:59;;;;;;;3.80;3.40;;;2.90;99.90;;;;;;5037554;28;20508;-77
2021/05/03 04:35:25;;;;;;;3.92;2.72;;;2.70;99.90;;;;;;5037533;28;20037;-77
2021/05/03 04:37:52;;;;;;;4.93;2.85;;;2.70;99.90;;;;;;5036368;28;20515;-77
2021/05/03 04:40:17;;;;;;;5.78;3.10;;;2.80;99.90;;;;;;5037834;28;20136;-78
2021/05/03 04:42:43;;;;;;;5.93;3.15;;;2.80;99.90;;;;;;5037633;28;20512;-77
2021/05/03 04:45:13;;;;;;;13.93;3.35;;;3.00;99.90;;;;;;5037781;28;20033;-77
2021/05/03 04:47:40;;;;;;;3.70;3.23;;;3.10;99.90;;;;;;5037961;28;20104;-77
2021/05/03 04:50:08;;;;;;;6.93;2.67;;;3.00;99.90;;;;;;5037588;28;20257;-77
2021/05/03 04:52:35;;;;;;;2.97;2.50;;;3.10;99.90;;;;;;5037846;28;20095;-77
2021/05/03 04:55:01;;;;;;;3.95;2.63;;;3.10;99.90;;;;;;5037745;28;20033;-78
2021/05/03 04:57:27;;;;;;;2.60;2.40;;;3.20;99.90;;;;;;5037360;28;20111;-78
2021/05/03 04:59:53;;;;;;;4.03;2.45;;;3.20;99.90;;;;;;5037286;28;20500;-78
2021/05/03 05:02:19;;;;;;;3.03;2.72;;;3.20;99.90;;;;;;5037312;28;20034;-77
2021/05/03 05:04:45;;;;;;;5.10;3.28;;;3.40;99.90;;;;;;5036994;28;20484;-78
2021/05/03 05:07:11;;;;;;;2.65;2.45;;;3.30;99.90;;;;;;5036931;28;20095;-78
2021/05/03 05:09:36;;;;;;;2.78;2.58;;;3.50;99.90;;;;;;5036814;28;20038;-77
2021/05/03 05:12:02;;;;;;;3.20;2.85;;;3.40;99.90;;;;;;5037093;28;20472;-78
2021/05/03 05:14:28;;;;;;;3.00;2.60;;;3.70;99.90;;;;;;5036698;28;20136;-78
2021/05/03 05:16:54;;;;;;;3.88;2.53;;;3.80;99.90;;;;;;5037279;28;20029;-79
2021/05/03 05:19:20;;;;;;;6.50;2.70;;;3.90;99.90;;;;;;5035712;28;20037;-78
2021/05/03 05:21:46;;;;;;;2.40;2.20;;;4.10;99.90;;;;;;5052596;28;20469;-81
2021/05/03 05:24:12;;;;;;;2.63;2.10;;;4.10;99.90;;;;;;5036895;28;20485;-80
2021/05/03 05:26:38;;;;;;;2.92;2.53;;;4.10;99.90;;;;;;5052550;28;20504;-80
2021/05/03 05:29:04;;;;;;;3.58;2.10;;;4.50;99.90;;;;;;5052193;28;20431;-78
2021/05/03 05:31:30;;;;;;;2.85;2.40;;;4.80;99.90;;;;;;5036746;28;20091;-79
2021/05/03 05:33:56;;;;;;;3.92;2.33;;;5.30;99.90;;;;;;5035871;28;20079;-77
2021/05/03 05:36:22;;;;;;;3.60;1.67;;;6.20;99.90;;;;;;5051904;28;20037;-79
2021/05/03 05:38:47;;;;;;;4.03;2.05;;;8.00;99.90;;;;;;5051946;28;20060;-77
2021/05/03 05:41:14;;;;;;;3.90;2.17;;;7.90;99.90;;;;;;5035538;28;20033;-77
2021/05/03 05:43:41;;;;;;;2.95;2.03;;;7.20;99.90;;;;;;5036351;28;20041;-77
2021/05/03 05:46:08;;;;;;;2.05;1.85;;;8.40;99.90;;;;;;5036699;28;20041;-77
2021/05/03 05:48:35;;;;;;;7.18;2.05;;;10.20;95.90;;;;;;5036607;28;20068;-77
2021/05/03 05:51:04;;;;;;;3.10;1.60;;;12.10;85.30;;;;;;5036612;28;20038;-77
2021/05/03 05:53:31;;;;;;;2.50;1.67;;;13.20;74.40;;;;;;5035322;28;20480;-77
2021/05/03 05:55:57;;;;;;;3.20;1.95;;;13.30;67.60;;;;;;5036571;28;20072;-77
2021/05/03 05:58:24;;;;;;;4.60;2.05;;;12.40;67.70;;;;;;5036403;28;20046;-77
2021/05/03 06:00:50;;;;;;;3.70;2.28;;;11.70;66.50;;;;;;5036133;28;20050;-77
2021/05/03 06:03:15;;;;;;;2.22;2.03;;;13.10;64.10;;;;;;5036357;28;20045;-77
2021/05/03 06:05:41;;;;;;;5.80;2.40;;;13.20;62.90;;;;;;5036378;28;20144;-77
2021/05/03 06:08:07;;;;;;;2.95;1.40;;;13.70;62.50;;;;;;5036358;28;20037;-77
2021/05/03 06:10:33;;;;;;;4.70;1.90;;;15.30;58.60;;;;;;5036223;28;20048;-77
2021/05/03 06:12:59;;;;;;;3.40;1.67;;;14.00;57.10;;;;;;5036228;28;20036;-77
2021/05/03 06:15:24;;;;;;;1.77;1.55;;;15.80;52.20;;;;;;5035888;28;20504;-78
2021/05/03 06:17:50;;;;;;;3.67;1.60;;;15.60;48.30;;;;;;5030683;28;20037;-80
2021/05/03 06:20:16;;;;;;;2.05;1.85;;;17.00;47.50;;;;;;5020695;28;20050;-79
2021/05/03 06:22:42;;;;;;;3.70;1.55;;;17.20;46.60;;;;;;5030862;28;20048;-78
2021/05/03 06:25:08;;;;;;;2.35;1.85;;;17.70;46.50;;;;;;5034642;28;20078;-77
2021/05/03 06:27:35;;;;;;;1.88;1.77;;;17.50;43.70;;;;;;5033830;28;20045;-78
2021/05/03 06:30:01;;;;;;;2.60;1.80;;;18.30;43.20;;;;;;5032861;28;20037;-77
2021/05/03 06:32:28;;;;;;;4.13;1.77;;;19.30;40.90;;;;;;5032949;28;20041;-77
2021/05/03 06:34:54;;;;;;;4.80;2.45;;;19.90;39.40;;;;;;5032338;28;20124;-77
2021/05/03 06:37:23;;;;;;;4.70;1.90;;;20.10;37.80;;;;;;5029511;28;20045;-76
2021/05/03 06:39:49;;;;;;;3.00;1.80;;;20.40;35.20;;;;;;5032708;28;20500;-78
2021/05/03 06:42:14;;;;;;;4.15;1.63;;;16.70;37.40;;;;;;5033945;28;20034;-77
2021/05/03 06:44:42;;;;;;;2.15;1.60;;;20.10;37.40;;;;;;5033868;28;20064;-79
2021/05/03 06:47:11;;;;;;;4.78;1.60;;;21.00;35.40;;;;;;5032648;28;20152;-79
2021/05/03 06:49:37;;;;;;;1.75;1.60;;;20.20;36.00;;;;;;5029372;28;20069;-78
2021/05/03 06:52:02;;;;;;;3.33;2.13;;;21.70;33.10;;;;;;5026968;28;20065;-77
2021/05/03 06:54:28;;;;;;;3.85;1.85;;;22.40;32.10;;;;;;5032081;28;20041;-81
2021/05/03 06:56:54;;;;;;;4.03;2.00;;;21.30;30.10;;;;;;5031698;28;20041;-79
2021/05/03 06:59:20;;;;;;;4.80;2.33;;;20.20;29.90;;;;;;5033782;28;20570;-78
2021/05/03 07:01:46;;;;;;;4.28;2.47;;;18.70;33.10;;;;;;5032100;28;20068;-81
2021/05/03 07:04:11;;;;;;;2.55;1.73;;;19.60;33.30;;;;;;5033143;28;20044;-81
2021/05/03 07:06:37;;;;;;;2.30;1.83;;;21.10;33.40;;;;;;5032939;28;20164;-81
2021/05/03 07:09:08;;;;;;;6.72;1.70;;;22.00;34.00;;;;;;5023052;28;20065;-81
2021/05/03 07:11:33;;;;;;;1.60;1.33;;;18.90;35.00;;;;;;5033635;28;20056;-83
2021/05/03 07:13:59;;;;;;;4.65;1.50;;;18.50;40.60;;;;;;5031066;28;20041;-81
2021/05/03 07:16:25;;;;;;;2.30;1.60;;;16.20;46.20;;;;;;5032080;28;20033;-79
2021/05/03 07:18:51;;;;;;;1.80;1.70;;;14.30;51.70;;;;;;5031323;28;20051;-80
2021/05/03 07:21:17;;;;;;;5.43;2.13;;;13.80;56.70;;;;;;5031186;28;20039;-79
2021/05/03 07:23:43;;;;;;;2.92;1.63;;;13.00;61.30;;;;;;5031210;28;20034;-79
2021/05/03 07:26:09;;;;;;;2.85;1.92;;;11.90;67.10;;;;;;5032129;28;20044;-81
2021/05/03 07:28:35;;;;;;;4.30;2.08;;;11.30;71.20;;;;;;5031665;28;20049;-79
2021/05/03 07:31:01;;;;;;;1.98;1.73;;;11.20;74.20;;;;;;5032137;28;20069;-78
2021/05/03 07:33:28;;;;;;;3.83;2.28;;;11.20;73.10;;;;;;5031150;28;20131;-80
2021/05/03 07:35:54;;;;;;;3.25;2.03;;;11.10;74.60;;;;;;5031431;28;20047;-77
2021/05/03 07:38:20;;;;;;;1.80;1.70;;;11.30;75.50;;;;;;5032747;28;20092;-78
2021/05/03 07:40:47;;;;;;;2.53;1.83;;;11.40;77.80;;;;;;5032647;28;20053;-79
2021/05/03 07:43:13;;;;;;;2.08;1.85;;;11.50;80.20;;;;;;5032838;28;20404;-78
2021/05/03 07:45:39;;;;;;;2.55;1.63;;;11.40;79.50;;;;;;5032367;28;20057;-79
2021/05/03 07:48:05;;;;;;;9.55;6.45;;;11.50;76.50;;;;;;5030085;28;20053;-77
2021/05/03 07:50:31;;;;;;;11.15;6.95;;;11.50;78.20;;;;;;5029995;28;20070;-77
2021/05/03 07:52:57;;;;;;;2.67;2.03;;;11.60;76.40;;;;;;5031793;28;20037;-77
2021/05/03 07:55:24;;;;;;;15.20;9.63;;;11.70;79.00;;;;;;5033037;28;20037;-80
2021/05/03 07:57:51;;;;;;;8.27;5.30;;;11.80;78.80;;;;;;5035079;28;20052;-78
2021/05/03 08:00:18;;;;;;;4.40;3.25;;;11.90;70.20;;;;;;5036870;28;20095;-78
2021/05/03 08:02:44;;;;;;;1.95;1.60;;;12.00;68.20;;;;;;5036873;28;20508;-77
2021/05/03 08:05:10;;;;;;;3.33;3.03;;;12.00;64.20;;;;;;5036644;28;20091;-78
2021/05/03 08:07:37;;;;;;;3.47;2.78;;;12.20;66.90;;;;;;5037118;28;20099;-78
2021/05/03 08:10:05;;;;;;;2.60;2.22;;;12.30;58.90;;;;;;5037300;28;20044;-78
2021/05/03 08:12:30;;;;;;;3.50;2.70;;;12.40;55.80;;;;;;5037111;28;20046;-78
2021/05/03 08:14:58;;;;;;;1.88;1.50;;;12.50;54.10;;;;;;5036448;28;20513;-81
2021/05/03 08:17:24;;;;;;;1.98;1.45;;;12.50;49.80;;;;;;5035542;28;20079;-79
2021/05/03 08:19:51;;;;;;;2.47;2.10;;;12.50;48.80;;;;;;5036012;28;20535;-81
2021/05/03 08:22:17;;;;;;;3.85;1.65;;;12.60;50.80;;;;;;5036070;28;20079;-80
2021/05/03 08:24:43;;;;;;;5.13;4.07;;;12.70;49.90;;;;;;5034492;28;20045;-81
2021/05/03 08:27:09;;;;;;;2.20;1.90;;;12.80;51.10;;;;;;5034235;28;20724;-80
2021/05/03 08:29:36;;;;;;;3.40;3.10;;;12.90;50.30;;;;;;5034331;28;20090;-79
2021/05/03 08:32:04;;;;;;;4.13;2.85;;;12.90;49.10;;;;;;5025457;28;20056;-79
2021/05/03 08:34:30;;;;;;;4.03;2.60;;;13.00;52.50;;;;;;5031766;28;20128;-79
2021/05/03 08:36:56;;;;;;;1.70;1.40;;;12.90;47.30;;;;;;5036072;28;20480;-79
2021/05/03 08:39:24;;;;;;;6.80;4.57;;;13.00;46.50;;;;;;5039642;28;20072;-79
2021/05/03 08:41:51;;;;;;;3.88;1.40;;;13.10;47.30;;;;;;5036092;28;20634;-78
2021/05/03 08:44:17;;;;;;;4.68;1.25;;;13.10;48.00;;;;;;5035954;28;20520;-77
2021/05/03 08:46:45;;;;;;;2.65;1.27;;;13.20;47.20;;;;;;5036221;28;20041;-77
2021/05/03 08:49:32;;;;;;;2.20;1.50;;;13.20;48.50;;;;;;5035823;28;20037;-77
2021/05/03 08:52:20;;;;;;;2.80;1.50;;;13.10;44.30;;;;;;5036385;28;20500;-78
2021/05/03 08:54:46;;;;;;;3.95;2.38;;;13.30;48.30;;;;;;5035435;28;20049;-78
2021/05/03 08:57:14;;;;;;;2.75;1.77;;;13.50;46.20;;;;;;5034981;28;20072;-79
2021/05/03 08:59:41;;;;;;;2.67;1.38;;;13.50;44.00;;;;;;5034707;28;20038;-78
2021/05/03 09:02:09;;;;;;;1.15;1.02;;;13.60;42.80;;;;;;5035249;28;20046;-78
2021/05/03 09:04:35;;;;;;;3.25;1.25;;;13.60;40.90;;;;;;5034887;28;20041;-78
2021/05/03 09:07:14;;;;;;;2.97;0.90;;;13.40;43.60;;;;;;5035265;28;20098;-78
2021/05/03 09:09:48;;;;;;;1.40;1.17;;;13.50;37.50;;;;;;5035695;28;20049;-78
2021/05/03 09:12:23;;;;;;;3.78;1.42;;;13.60;37.00;;;;;;5035759;28;20168;-78
2021/05/03 09:14:59;;;;;;;2.28;1.20;;;13.60;39.30;;;;;;5035773;28;20041;-78
2021/05/03 09:17:29;;;;;;;3.33;1.02;;;13.70;37.70;;;;;;5033100;28;20128;-78
2021/05/03 09:20:01;;;;;;;3.15;1.30;;;13.70;37.30;;;;;;5022178;28;20041;-78
2021/05/03 09:22:31;;;;;;;1.15;1.05;;;13.80;36.30;;;;;;5031849;28;20041;-78
2021/05/03 09:25:37;;;;;;;1.20;1.10;;;13.70;35.10;;;;;;5035440;28;20049;-78
2021/05/03 09:28:11;;;;;;;1.15;1.05;;;13.80;35.30;;;;;;5035690;28;20037;-78
2021/05/03 09:30:43;;;;;;;1.25;1.02;;;13.90;36.50;;;;;;5035547;28;20083;-78
2021/05/03 09:33:24;;;;;;;1.20;1.10;;;13.90;36.00;;;;;;5035891;28;20072;-78
2021/05/03 09:35:59;;;;;;;2.38;1.20;;;14.00;34.10;;;;;;5035608;28;20128;-78
2021/05/03 09:38:42;;;;;;;2.65;1.00;;;14.20;35.50;;;;;;5035580;28;20049;-78
2021/05/03 09:41:21;;;;;;;1.65;1.10;;;14.20;33.60;;;;;;5035278;28;20412;-78
2021/05/03 09:43:51;;;;;;;2.35;1.33;;;14.20;35.00;;;;;;5035356;28;20073;-78
2021/05/03 09:46:43;;;;;;;1.25;1.00;;;14.20;33.10;;;;;;5035613;28;20041;-78
2021/05/03 09:49:17;;;;;;;1.60;1.00;;;14.20;33.50;;;;;;5035289;28;20488;-78
2021/05/03 09:51:56;;;;;;;2.33;1.10;;;14.20;34.80;;;;;;5034623;28;20048;-78
2021/05/03 09:54:27;;;;;;;2.20;1.00;;;14.30;33.50;;;;;;5035669;28;20045;-78
2021/05/03 09:57:01;;;;;;;1.20;1.10;;;14.30;32.50;;;;;;5035276;28;20052;-79
2021/05/03 09:59:38;;;;;;;1.70;1.10;;;14.30;31.70;;;;;;5035229;28;20126;-78
2021/05/03 10:02:18;;;;;;;1.15;1.02;;;14.20;32.20;;;;;;5035642;28;20045;-78
2021/05/03 10:04:55;;;;;;;2.38;1.33;;;14.20;31.80;;;;;;5018502;28;20057;-78
2021/05/03 10:07:22;;;;;;;1.20;1.10;;;14.30;34.00;;;;;;5035116;28;20052;-77
2021/05/03 10:10:11;;;;;;;2.55;1.10;;;14.30;33.00;;;;;;5034980;28;20514;-78
2021/05/03 10:12:37;;;;;;;1.38;0.90;;;14.30;31.70;;;;;;5034934;28;20116;-78
2021/05/03 10:15:07;;;;;;;2.85;1.10;;;14.50;31.70;;;;;;5033263;28;20481;-79
2021/05/03 10:17:33;;;;;;;3.67;1.02;;;14.50;32.40;;;;;;5034830;28;20042;-78
2021/05/03 10:20:00;;;;;;;1.38;0.93;;;14.70;33.50;;;;;;5034069;28;20091;-78
2021/05/03 10:22:29;;;;;;;0.90;0.90;;;14.70;34.80;;;;;;5034731;28;20030;-78
2021/05/03 10:24:58;;;;;;;2.65;0.98;;;14.70;31.50;;;;;;5034722;28;20049;-78
2021/05/03 10:27:25;;;;;;;1.05;0.98;;;14.80;30.80;;;;;;5034451;28;20033;-78
2021/05/03 10:30:11;;;;;;;1.58;0.95;;;15.00;30.50;;;;;;5034782;28;20523;-77
2021/05/03 10:32:38;;;;;;;2.38;1.08;;;15.10;29.90;;;;;;5034859;28;20560;-79
2021/05/03 10:35:22;;;;;;;2.65;1.00;;;15.00;29.80;;;;;;5034689;28;20068;-78
2021/05/03 10:37:49;;;;;;;0.90;0.80;;;15.10;32.70;;;;;;5034165;28;20115;-78
2021/05/03 10:40:18;;;;;;;1.42;1.05;;;15.10;33.80;;;;;;5034588;28;20053;-78
2021/05/03 10:43:02;;;;;;;2.55;1.10;;;15.00;31.10;;;;;;5034058;28;20033;-78
2021/05/03 10:46:02;;;;;;;1.27;0.80;;;15.00;31.20;;;;;;5034286;28;20048;-78
2021/05/03 10:51:28;;;;;;;1.10;1.00;;;15.30;29.90;;;;;;5033731;28;20045;-78
2021/05/03 10:53:54;;;;;;;3.08;0.80;;;15.30;34.10;;;;;;5034016;28;20033;-78
2021/05/03 10:56:40;;;;;;;1.40;1.10;;;15.20;32.70;;;;;;5033540;28;20116;-78
2021/05/03 10:59:11;;;;;;;1.63;1.00;;;15.20;32.70;;;;;;5032571;28;20041;-77
2021/05/03 11:01:52;;;;;;;2.90;1.05;;;15.30;32.50;;;;;;5032525;28;20521;-78
2021/05/03 11:04:29;;;;;;;1.83;0.77;;;15.30;32.00;;;;;;5033589;28;20064;-78
2021/05/03 11:06:57;;;;;;;1.55;1.17;;;15.40;34.10;;;;;;5033770;28;20040;-78
2021/05/03 11:09:34;;;;;;;1.17;0.80;;;15.50;33.70;;;;;;5033691;28;20048;-78
2021/05/03 11:12:06;;;;;;;2.08;1.17;;;15.70;35.60;;;;;;5033764;28;20496;-78
2021/05/03 11:14:34;;;;;;;1.10;0.82;;;15.70;32.90;;;;;;5032872;28;20049;-78
2021/05/03 11:19:40;;;;;;;2.13;1.13;;;15.80;31.90;;;;;;5032400;28;20061;-79
2021/05/03 11:22:09;;;;;;;1.27;1.10;;;15.90;33.50;;;;;;5033067;28;20045;-78
2021/05/03 11:24:53;;;;;;;1.10;1.00;;;15.70;35.00;;;;;;5033574;28;20427;-78
2021/05/03 11:30:42;;;;;;;3.20;1.23;;;15.80;35.70;;;;;;5031540;28;20068;-77
2021/05/03 11:35:49;;;;;;;1.63;1.20;;;15.80;35.50;;;;;;5033574;28;20036;-78
2021/05/03 11:38:39;;;;;;;2.63;1.02;;;15.70;34.50;;;;;;5033177;28;20049;-77
2021/05/03 11:41:22;;;;;;;2.58;1.20;;;15.80;34.30;;;;;;5033325;28;20041;-78
2021/05/03 11:46:35;;;;;;;1.10;1.00;;;15.80;34.60;;;;;;5032789;28;20504;-78
2021/05/03 11:49:15;;;;;;;1.27;1.08;;;15.80;37.50;;;;;;5033178;28;20037;-77
2021/05/03 11:51:53;;;;;;;1.00;0.90;;;15.80;35.90;;;;;;5033154;28;20045;-78
2021/05/03 11:54:33;;;;;;;1.40;1.08;;;15.70;34.60;;;;;;5032122;28;20034;-78
2021/05/03 11:56:59;;;;;;;3.80;1.00;;;15.70;35.60;;;;;;5032751;28;20046;-78
2021/05/03 11:59:25;;;;;;;1.67;1.05;;;15.70;36.80;;;;;;5032651;28;20045;-77
2021/05/03 12:02:02;;;;;;;4.45;1.10;;;15.70;36.70;;;;;;5032872;28;20037;-77
2021/05/03 12:04:51;;;;;;;1.30;1.08;;;15.70;33.30;;;;;;5033081;28;20142;-77
2021/05/03 12:07:18;;;;;;;3.42;1.10;;;15.70;36.40;;;;;;5032670;28;20053;-77
2021/05/03 12:09:45;;;;;;;2.42;0.90;;;15.80;36.50;;;;;;5033234;28;20099;-78
2021/05/03 12:12:17;;;;;;;1.83;1.10;;;15.90;37.10;;;;;;5031595;28;20048;-78
2021/05/03 12:14:50;;;;;;;3.03;1.10;;;15.80;35.40;;;;;;5030776;28;20054;-77
2021/05/03 12:17:27;;;;;;;1.88;1.13;;;15.70;34.30;;;;;;5031873;28;20053;-78
2021/05/03 12:19:55;;;;;;;1.27;1.00;;;15.70;35.30;;;;;;5032171;28;20045;-78
2021/05/03 12:22:22;;;;;;;1.58;1.10;;;15.70;35.30;;;;;;5031223;28;20055;-78
2021/05/03 12:24:50;;;;;;;1.75;1.00;;;15.70;37.10;;;;;;5031919;28;20061;-76
2021/05/03 12:27:16;;;;;;;2.67;1.08;;;15.80;35.80;;;;;;5032231;28;20053;-77
2021/05/03 12:29:46;;;;;;;3.50;1.15;;;15.70;36.10;;;;;;5021013;28;20053;-76
2021/05/03 12:32:18;;;;;;;1.77;1.10;;;16.00;36.90;;;;;;5029287;28;20579;-77
2021/05/03 12:34:49;;;;;;;1.20;1.10;;;15.70;37.40;;;;;;5032512;28;20065;-77
2021/05/03 12:37:23;;;;;;;1.77;1.20;;;15.80;36.30;;;;;;5032922;28;20497;-77
2021/05/03 12:40:08;;;;;;;1.95;1.00;;;16.10;36.60;;;;;;5032800;28;20095;-76
2021/05/03 12:42:34;;;;;;;1.58;0.90;;;16.10;35.10;;;;;;5033550;28;20052;-77
2021/05/03 12:45:12;;;;;;;1.60;1.35;;;15.90;34.10;;;;;;5036379;28;20068;-77
2021/05/03 12:53:57;;;;;;;2.30;1.05;;;16.30;37.50;;;;;;5035482;28;20032;-77
2021/05/03 12:56:33;;;;;;;5.38;1.30;;;16.20;35.20;;;;;;5035279;28;20512;-77
2021/05/03 13:02:00;;;;;;;1.20;1.00;;;16.00;36.40;;;;;;5035382;28;20035;-77
2021/05/03 13:04:46;;;;;;;1.27;0.90;;;16.10;30.50;;;;;;5035057;28;20049;-76
2021/05/03 13:22:30;;;;;;;17.92;8.10;;;15.90;35.80;;;;;;5035205;28;20064;-82
2021/05/03 13:29:14;;;;;;;3.45;1.40;;;16.10;29.20;;;;;;5034986;28;20523;-77
2021/05/03 13:31:42;;;;;;;3.38;1.70;;;16.20;30.60;;;;;;5035660;28;20556;-77
2021/05/03 13:34:13;;;;;;;2.65;1.17;;;16.40;34.00;;;;;;5035576;28;20076;-80
2021/05/03 13:36:40;;;;;;;2.45;1.20;;;16.40;33.90;;;;;;5034954;28;20036;-80
2021/05/03 13:39:09;;;;;;;1.95;1.13;;;16.10;33.30;;;;;;5035680;28;20041;-80
2021/05/03 13:41:35;;;;;;;1.80;1.02;;;16.20;34.40;;;;;;5035020;28;20045;-80
2021/05/03 13:44:02;;;;;;;2.53;1.23;;;16.30;34.30;;;;;;5049757;28;20029;-78
2021/05/03 13:46:29;;;;;;;2.40;1.38;;;16.40;34.70;;;;;;5034414;28;20125;-78
2021/05/03 13:48:55;;;;;;;3.67;1.42;;;16.50;35.40;;;;;;5034283;28;20041;-77
2021/05/03 13:51:22;;;;;;;1.67;1.05;;;16.40;34.30;;;;;;5034804;28;20095;-78
2021/05/03 13:53:48;;;;;;;3.60;1.20;;;16.10;34.00;;;;;;5033740;28;20527;-78